sensor_id;sensor_type;location;lat;lon;timestamp;P1;durP1;ratioP1;P2;durP2;ratioP2
59880;SDS011;45751;51.380;10.326;2023-07-09T00:01:17;10.95;;;5.88;;
59880;SDS011;45751;51.380;10.326;2023-07-09T00:03:45;9.40;;;5.47;;
59880;SDS011;45751;51.380;10.326;2023-07-09T00:06:17;10.55;;;5.57;;
59880;SDS011;45751;51.380;10.326;2023-07-09T00:08:47;10.45;;;5.60;;
59880;SDS011;45751;51.380;10.326;2023-07-09T00:11:15;9.60;;;4.82;;
59880;SDS011;45751;51.380;10.326;2023-07-09T00:13:43;10.48;;;5.32;;
59880;SDS011;45751;51.380;10.326;2023-07-09T00:16:21;9.07;;;4.70;;
59880;SDS011;45751;51.380;10.326;2023-07-09T00:18:51;10.45;;;5.35;;
59880;SDS011;45751;51.380;10.326;2023-07-09T00:21:18;11.00;;;5.43;;
59880;SDS011;45751;51.380;10.326;2023-07-09T00:23:49;10.13;;;5.00;;
59880;SDS011;45751;51.380;10.326;2023-07-09T00:26:16;10.00;;;4.95;;
59880;SDS011;45751;51.380;10.326;2023-07-09T00:28:46;10.32;;;5.28;;
59880;SDS011;45751;51.380;10.326;2023-07-09T00:31:14;9.48;;;5.05;;
59880;SDS011;45751;51.380;10.326;2023-07-09T00:33:43;14.07;;;6.00;;
59880;SDS011;45751;51.380;10.326;2023-07-09T00:36:16;11.40;;;4.95;;
59880;SDS011;45751;51.380;10.326;2023-07-09T00:38:48;11.13;;;5.25;;
59880;SDS011;45751;51.380;10.326;2023-07-09T00:41:16;10.20;;;5.18;;
59880;SDS011;45751;51.380;10.326;2023-07-09T00:43:46;10.82;;;5.70;;
59880;SDS011;45751;51.380;10.326;2023-07-09T00:51:32;11.98;;;5.35;;
59880;SDS011;45751;51.380;10.326;2023-07-09T00:54:03;10.30;;;5.13;;
59880;SDS011;45751;51.380;10.326;2023-07-09T00:56:43;10.70;;;5.38;;
59880;SDS011;45751;51.380;10.326;2023-07-09T00:59:15;9.48;;;4.80;;
59880;SDS011;45751;51.380;10.326;2023-07-09T01:01:43;9.30;;;5.18;;
59880;SDS011;45751;51.380;10.326;2023-07-09T01:04:13;12.02;;;4.85;;
59880;SDS011;45751;51.380;10.326;2023-07-09T01:06:44;14.60;;;5.85;;
59880;SDS011;45751;51.380;10.326;2023-07-09T01:09:15;10.13;;;5.25;;
59880;SDS011;45751;51.380;10.326;2023-07-09T01:11:43;9.82;;;5.03;;
59880;SDS011;45751;51.380;10.326;2023-07-09T01:14:11;10.65;;;4.80;;
59880;SDS011;45751;51.380;10.326;2023-07-09T01:16:44;9.38;;;5.10;;
59880;SDS011;45751;51.380;10.326;2023-07-09T01:19:15;11.52;;;5.10;;
59880;SDS011;45751;51.380;10.326;2023-07-09T01:21:50;11.63;;;5.05;;
59880;SDS011;45751;51.380;10.326;2023-07-09T01:27:16;11.23;;;4.90;;
59880;SDS011;45751;51.380;10.326;2023-07-09T01:29:45;10.07;;;4.90;;
59880;SDS011;45751;51.380;10.326;2023-07-09T01:32:16;9.10;;;4.43;;
59880;SDS011;45751;51.380;10.326;2023-07-09T01:34:48;10.18;;;4.65;;
59880;SDS011;45751;51.380;10.326;2023-07-09T01:37:17;10.68;;;4.70;;
59880;SDS011;45751;51.380;10.326;2023-07-09T01:39:48;10.82;;;4.93;;
59880;SDS011;45751;51.380;10.326;2023-07-09T01:42:17;9.18;;;4.50;;
59880;SDS011;45751;51.380;10.326;2023-07-09T01:44:49;9.55;;;4.70;;
59880;SDS011;45751;51.380;10.326;2023-07-09T01:47:17;10.98;;;5.45;;
59880;SDS011;45751;51.380;10.326;2023-07-09T01:49:44;9.88;;;5.10;;
59880;SDS011;45751;51.380;10.326;2023-07-09T01:52:15;9.57;;;5.07;;
59880;SDS011;45751;51.380;10.326;2023-07-09T01:54:42;9.93;;;4.72;;
59880;SDS011;45751;51.380;10.326;2023-07-09T01:57:17;9.40;;;4.93;;
59880;SDS011;45751;51.380;10.326;2023-07-09T01:59:53;9.68;;;4.68;;
59880;SDS011;45751;51.380;10.326;2023-07-09T02:02:21;11.48;;;5.40;;
59880;SDS011;45751;51.380;10.326;2023-07-09T02:04:50;10.27;;;4.88;;
59880;SDS011;45751;51.380;10.326;2023-07-09T02:07:19;9.35;;;4.85;;
59880;SDS011;45751;51.380;10.326;2023-07-09T02:09:47;9.25;;;5.15;;
59880;SDS011;45751;51.380;10.326;2023-07-09T02:12:15;9.77;;;4.47;;
59880;SDS011;45751;51.380;10.326;2023-07-09T02:14:43;15.48;;;6.10;;
59880;SDS011;45751;51.380;10.326;2023-07-09T02:17:11;9.18;;;4.82;;
59880;SDS011;45751;51.380;10.326;2023-07-09T02:19:39;9.98;;;4.85;;
59880;SDS011;45751;51.380;10.326;2023-07-09T02:22:07;12.13;;;5.10;;
59880;SDS011;45751;51.380;10.326;2023-07-09T02:24:35;11.75;;;4.93;;
59880;SDS011;45751;51.380;10.326;2023-07-09T02:27:03;11.02;;;4.90;;
59880;SDS011;45751;51.380;10.326;2023-07-09T02:29:31;12.02;;;5.30;;
59880;SDS011;45751;51.380;10.326;2023-07-09T02:32:00;8.20;;;4.43;;
59880;SDS011;45751;51.380;10.326;2023-07-09T02:34:29;9.93;;;5.03;;
59880;SDS011;45751;51.380;10.326;2023-07-09T02:36:57;10.00;;;5.20;;
59880;SDS011;45751;51.380;10.326;2023-07-09T02:39:25;10.48;;;5.05;;
59880;SDS011;45751;51.380;10.326;2023-07-09T02:41:53;12.68;;;5.53;;
59880;SDS011;45751;51.380;10.326;2023-07-09T02:44:20;10.52;;;5.00;;
59880;SDS011;45751;51.380;10.326;2023-07-09T02:46:47;10.32;;;5.00;;
59880;SDS011;45751;51.380;10.326;2023-07-09T02:49:14;10.40;;;5.43;;
59880;SDS011;45751;51.380;10.326;2023-07-09T02:51:42;10.32;;;4.95;;
59880;SDS011;45751;51.380;10.326;2023-07-09T02:54:09;10.10;;;5.05;;
59880;SDS011;45751;51.380;10.326;2023-07-09T02:56:36;12.75;;;4.75;;
59880;SDS011;45751;51.380;10.326;2023-07-09T02:59:04;10.15;;;5.15;;
59880;SDS011;45751;51.380;10.326;2023-07-09T03:01:31;11.77;;;4.97;;
59880;SDS011;45751;51.380;10.326;2023-07-09T03:04:01;10.18;;;5.25;;
59880;SDS011;45751;51.380;10.326;2023-07-09T03:06:30;10.45;;;4.88;;
59880;SDS011;45751;51.380;10.326;2023-07-09T03:09:02;11.40;;;5.63;;
59880;SDS011;45751;51.380;10.326;2023-07-09T03:11:30;9.93;;;5.13;;
59880;SDS011;45751;51.380;10.326;2023-07-09T03:13:59;13.57;;;4.95;;
59880;SDS011;45751;51.380;10.326;2023-07-09T03:16:27;10.05;;;5.07;;
59880;SDS011;45751;51.380;10.326;2023-07-09T03:18:55;9.15;;;4.72;;
59880;SDS011;45751;51.380;10.326;2023-07-09T03:21:23;10.50;;;4.90;;
59880;SDS011;45751;51.380;10.326;2023-07-09T03:23:52;9.45;;;4.82;;
59880;SDS011;45751;51.380;10.326;2023-07-09T03:26:20;11.48;;;4.95;;
59880;SDS011;45751;51.380;10.326;2023-07-09T03:28:47;9.43;;;4.85;;
59880;SDS011;45751;51.380;10.326;2023-07-09T03:31:15;10.43;;;4.95;;
59880;SDS011;45751;51.380;10.326;2023-07-09T03:33:42;9.95;;;5.47;;
59880;SDS011;45751;51.380;10.326;2023-07-09T03:36:08;9.32;;;4.18;;
59880;SDS011;45751;51.380;10.326;2023-07-09T03:38:36;12.15;;;4.88;;
59880;SDS011;45751;51.380;10.326;2023-07-09T03:41:02;8.73;;;4.90;;
59880;SDS011;45751;51.380;10.326;2023-07-09T03:43:29;12.70;;;4.90;;
59880;SDS011;45751;51.380;10.326;2023-07-09T03:45:56;10.13;;;5.10;;
59880;SDS011;45751;51.380;10.326;2023-07-09T03:48:24;10.20;;;4.88;;
59880;SDS011;45751;51.380;10.326;2023-07-09T03:50:51;11.18;;;5.25;;
59880;SDS011;45751;51.380;10.326;2023-07-09T03:53:18;11.05;;;5.65;;
59880;SDS011;45751;51.380;10.326;2023-07-09T03:55:45;10.93;;;5.22;;
59880;SDS011;45751;51.380;10.326;2023-07-09T03:58:17;14.30;;;5.60;;
59880;SDS011;45751;51.380;10.326;2023-07-09T04:00:44;11.10;;;5.93;;
59880;SDS011;45751;51.380;10.326;2023-07-09T04:03:11;9.65;;;4.90;;
59880;SDS011;45751;51.380;10.326;2023-07-09T04:05:38;9.65;;;5.15;;
59880;SDS011;45751;51.380;10.326;2023-07-09T04:08:05;9.82;;;4.68;;
59880;SDS011;45751;51.380;10.326;2023-07-09T04:10:32;10.70;;;5.82;;
59880;SDS011;45751;51.380;10.326;2023-07-09T04:12:59;10.68;;;5.22;;
59880;SDS011;45751;51.380;10.326;2023-07-09T04:15:26;11.63;;;5.07;;
59880;SDS011;45751;51.380;10.326;2023-07-09T04:17:53;9.82;;;5.20;;
59880;SDS011;45751;51.380;10.326;2023-07-09T04:20:21;10.63;;;5.05;;
59880;SDS011;45751;51.380;10.326;2023-07-09T04:22:48;9.77;;;4.82;;
59880;SDS011;45751;51.380;10.326;2023-07-09T04:25:15;9.75;;;5.20;;
59880;SDS011;45751;51.380;10.326;2023-07-09T04:27:43;10.55;;;5.30;;
59880;SDS011;45751;51.380;10.326;2023-07-09T04:30:12;11.75;;;5.20;;
59880;SDS011;45751;51.380;10.326;2023-07-09T04:32:42;10.63;;;5.97;;
59880;SDS011;45751;51.380;10.326;2023-07-09T04:35:10;9.25;;;4.65;;
59880;SDS011;45751;51.380;10.326;2023-07-09T04:37:39;10.77;;;5.07;;
59880;SDS011;45751;51.380;10.326;2023-07-09T04:40:07;11.73;;;5.20;;
59880;SDS011;45751;51.380;10.326;2023-07-09T04:42:37;10.10;;;4.97;;
59880;SDS011;45751;51.380;10.326;2023-07-09T04:45:06;10.32;;;5.35;;
59880;SDS011;45751;51.380;10.326;2023-07-09T04:47:34;11.80;;;5.53;;
59880;SDS011;45751;51.380;10.326;2023-07-09T04:50:02;10.88;;;5.05;;
59880;SDS011;45751;51.380;10.326;2023-07-09T04:52:30;9.38;;;5.18;;
59880;SDS011;45751;51.380;10.326;2023-07-09T04:54:57;10.13;;;5.10;;
59880;SDS011;45751;51.380;10.326;2023-07-09T04:57:25;10.50;;;5.35;;
59880;SDS011;45751;51.380;10.326;2023-07-09T04:59:53;12.05;;;5.03;;
59880;SDS011;45751;51.380;10.326;2023-07-09T05:02:20;10.57;;;4.88;;
59880;SDS011;45751;51.380;10.326;2023-07-09T05:04:47;9.60;;;4.72;;
59880;SDS011;45751;51.380;10.326;2023-07-09T05:07:13;12.82;;;6.28;;
59880;SDS011;45751;51.380;10.326;2023-07-09T05:09:40;12.40;;;5.95;;
59880;SDS011;45751;51.380;10.326;2023-07-09T05:12:07;11.20;;;5.88;;
59880;SDS011;45751;51.380;10.326;2023-07-09T05:14:36;11.20;;;5.30;;
59880;SDS011;45751;51.380;10.326;2023-07-09T05:17:03;10.35;;;4.85;;
59880;SDS011;45751;51.380;10.326;2023-07-09T05:19:30;9.90;;;5.13;;
59880;SDS011;45751;51.380;10.326;2023-07-09T05:21:58;10.13;;;5.20;;
59880;SDS011;45751;51.380;10.326;2023-07-09T05:24:25;10.52;;;5.35;;
59880;SDS011;45751;51.380;10.326;2023-07-09T05:26:54;10.48;;;5.32;;
59880;SDS011;45751;51.380;10.326;2023-07-09T05:29:22;10.40;;;5.20;;
59880;SDS011;45751;51.380;10.326;2023-07-09T05:31:49;9.32;;;4.95;;
59880;SDS011;45751;51.380;10.326;2023-07-09T05:34:16;11.32;;;5.60;;
59880;SDS011;45751;51.380;10.326;2023-07-09T05:36:43;12.13;;;5.25;;
59880;SDS011;45751;51.380;10.326;2023-07-09T05:39:11;10.27;;;5.50;;
59880;SDS011;45751;51.380;10.326;2023-07-09T05:41:38;12.30;;;5.25;;
59880;SDS011;45751;51.380;10.326;2023-07-09T05:44:05;11.70;;;6.05;;
59880;SDS011;45751;51.380;10.326;2023-07-09T05:46:35;14.65;;;6.22;;
59880;SDS011;45751;51.380;10.326;2023-07-09T05:49:06;12.45;;;6.07;;
59880;SDS011;45751;51.380;10.326;2023-07-09T05:51:33;10.93;;;5.47;;
59880;SDS011;45751;51.380;10.326;2023-07-09T05:54:00;11.23;;;5.43;;
59880;SDS011;45751;51.380;10.326;2023-07-09T05:56:28;11.82;;;5.22;;
59880;SDS011;45751;51.380;10.326;2023-07-09T05:58:55;12.68;;;6.13;;
59880;SDS011;45751;51.380;10.326;2023-07-09T06:01:23;10.63;;;5.00;;
59880;SDS011;45751;51.380;10.326;2023-07-09T06:03:50;11.05;;;5.30;;
59880;SDS011;45751;51.380;10.326;2023-07-09T06:06:17;10.80;;;5.15;;
59880;SDS011;45751;51.380;10.326;2023-07-09T06:08:44;10.93;;;5.35;;
59880;SDS011;45751;51.380;10.326;2023-07-09T06:11:11;11.88;;;5.22;;
59880;SDS011;45751;51.380;10.326;2023-07-09T06:13:38;11.18;;;5.50;;
59880;SDS011;45751;51.380;10.326;2023-07-09T06:16:05;11.05;;;5.55;;
59880;SDS011;45751;51.380;10.326;2023-07-09T06:18:32;11.40;;;6.00;;
59880;SDS011;45751;51.380;10.326;2023-07-09T06:21:00;11.88;;;5.45;;
59880;SDS011;45751;51.380;10.326;2023-07-09T06:23:29;11.38;;;5.65;;
59880;SDS011;45751;51.380;10.326;2023-07-09T06:25:57;9.57;;;5.22;;
59880;SDS011;45751;51.380;10.326;2023-07-09T06:28:25;11.10;;;5.18;;
59880;SDS011;45751;51.380;10.326;2023-07-09T06:30:55;9.93;;;5.47;;
59880;SDS011;45751;51.380;10.326;2023-07-09T06:33:22;10.88;;;5.38;;
59880;SDS011;45751;51.380;10.326;2023-07-09T06:35:51;11.75;;;5.55;;
59880;SDS011;45751;51.380;10.326;2023-07-09T06:38:26;10.95;;;6.05;;
59880;SDS011;45751;51.380;10.326;2023-07-09T06:40:54;14.43;;;6.13;;
59880;SDS011;45751;51.380;10.326;2023-07-09T06:43:22;10.27;;;6.43;;
59880;SDS011;45751;51.380;10.326;2023-07-09T06:48:16;12.63;;;6.32;;
59880;SDS011;45751;51.380;10.326;2023-07-09T06:50:43;12.70;;;7.03;;
59880;SDS011;45751;51.380;10.326;2023-07-09T06:53:10;12.30;;;6.93;;
59880;SDS011;45751;51.380;10.326;2023-07-09T06:55:37;10.90;;;6.00;;
59880;SDS011;45751;51.380;10.326;2023-07-09T06:58:04;14.20;;;6.80;;
59880;SDS011;45751;51.380;10.326;2023-07-09T07:00:31;12.38;;;6.50;;
59880;SDS011;45751;51.380;10.326;2023-07-09T07:03:03;11.10;;;6.57;;
59880;SDS011;45751;51.380;10.326;2023-07-09T07:05:32;12.77;;;6.78;;
59880;SDS011;45751;51.380;10.326;2023-07-09T07:07:59;12.25;;;7.18;;
59880;SDS011;45751;51.380;10.326;2023-07-09T07:10:27;13.23;;;6.53;;
59880;SDS011;45751;51.380;10.326;2023-07-09T07:12:54;12.07;;;6.95;;
59880;SDS011;45751;51.380;10.326;2023-07-09T07:15:21;14.38;;;7.28;;
59880;SDS011;45751;51.380;10.326;2023-07-09T07:17:49;13.88;;;7.90;;
59880;SDS011;45751;51.380;10.326;2023-07-09T07:20:16;14.60;;;7.35;;
59880;SDS011;45751;51.380;10.326;2023-07-09T07:22:43;16.50;;;7.78;;
59880;SDS011;45751;51.380;10.326;2023-07-09T07:25:10;13.88;;;7.38;;
59880;SDS011;45751;51.380;10.326;2023-07-09T07:27:38;14.07;;;6.60;;
59880;SDS011;45751;51.380;10.326;2023-07-09T07:30:06;11.02;;;6.13;;
59880;SDS011;45751;51.380;10.326;2023-07-09T07:32:37;13.20;;;5.95;;
59880;SDS011;45751;51.380;10.326;2023-07-09T07:35:08;13.43;;;7.00;;
59880;SDS011;45751;51.380;10.326;2023-07-09T07:37:35;16.85;;;6.78;;
59880;SDS011;45751;51.380;10.326;2023-07-09T07:40:02;11.80;;;5.90;;
59880;SDS011;45751;51.380;10.326;2023-07-09T07:42:31;10.70;;;6.28;;
59880;SDS011;45751;51.380;10.326;2023-07-09T07:44:58;13.00;;;6.75;;
59880;SDS011;45751;51.380;10.326;2023-07-09T07:47:25;13.27;;;6.55;;
59880;SDS011;45751;51.380;10.326;2023-07-09T07:49:53;11.23;;;6.20;;
59880;SDS011;45751;51.380;10.326;2023-07-09T07:52:20;12.32;;;7.28;;
59880;SDS011;45751;51.380;10.326;2023-07-09T07:54:47;10.35;;;5.45;;
59880;SDS011;45751;51.380;10.326;2023-07-09T07:57:14;11.40;;;6.35;;
59880;SDS011;45751;51.380;10.326;2023-07-09T07:59:41;12.07;;;6.38;;
59880;SDS011;45751;51.380;10.326;2023-07-09T08:02:11;11.25;;;6.50;;
59880;SDS011;45751;51.380;10.326;2023-07-09T08:04:40;10.68;;;6.43;;
59880;SDS011;45751;51.380;10.326;2023-07-09T08:07:08;10.90;;;6.57;;
59880;SDS011;45751;51.380;10.326;2023-07-09T08:09:36;12.05;;;6.20;;
59880;SDS011;45751;51.380;10.326;2023-07-09T08:12:04;11.25;;;6.25;;
59880;SDS011;45751;51.380;10.326;2023-07-09T08:14:41;12.23;;;6.65;;
59880;SDS011;45751;51.380;10.326;2023-07-09T08:17:10;12.85;;;5.95;;
59880;SDS011;45751;51.380;10.326;2023-07-09T08:19:50;11.20;;;6.05;;
59880;SDS011;45751;51.380;10.326;2023-07-09T08:22:19;12.65;;;5.63;;
59880;SDS011;45751;51.380;10.326;2023-07-09T08:24:49;14.07;;;6.50;;
59880;SDS011;45751;51.380;10.326;2023-07-09T08:27:18;13.80;;;6.15;;
59880;SDS011;45751;51.380;10.326;2023-07-09T08:29:46;10.65;;;5.65;;
59880;SDS011;45751;51.380;10.326;2023-07-09T08:32:13;11.13;;;4.88;;
59880;SDS011;45751;51.380;10.326;2023-07-09T08:34:40;12.32;;;5.25;;
59880;SDS011;45751;51.380;10.326;2023-07-09T08:37:28;11.60;;;5.70;;
59880;SDS011;45751;51.380;10.326;2023-07-09T08:39:55;11.57;;;5.30;;
59880;SDS011;45751;51.380;10.326;2023-07-09T08:42:32;13.85;;;7.28;;
59880;SDS011;45751;51.380;10.326;2023-07-09T08:50:38;10.82;;;4.82;;
59880;SDS011;45751;51.380;10.326;2023-07-09T08:53:13;13.45;;;5.72;;
59880;SDS011;45751;51.380;10.326;2023-07-09T08:55:46;10.65;;;4.70;;
59880;SDS011;45751;51.380;10.326;2023-07-09T08:58:26;12.48;;;5.53;;
59880;SDS011;45751;51.380;10.326;2023-07-09T09:01:01;13.90;;;5.68;;
59880;SDS011;45751;51.380;10.326;2023-07-09T09:06:09;15.63;;;7.40;;
59880;SDS011;45751;51.380;10.326;2023-07-09T09:14:00;12.50;;;5.38;;
59880;SDS011;45751;51.380;10.326;2023-07-09T09:16:32;11.57;;;5.38;;
59880;SDS011;45751;51.380;10.326;2023-07-09T09:19:04;11.18;;;5.35;;
59880;SDS011;45751;51.380;10.326;2023-07-09T09:22:13;10.77;;;4.82;;
59880;SDS011;45751;51.380;10.326;2023-07-09T09:27:25;13.25;;;6.38;;
59880;SDS011;45751;51.380;10.326;2023-07-09T09:29:51;10.48;;;5.13;;
59880;SDS011;45751;51.380;10.326;2023-07-09T09:34:51;19.13;;;8.63;;
59880;SDS011;45751;51.380;10.326;2023-07-09T09:37:36;13.50;;;6.45;;
59880;SDS011;45751;51.380;10.326;2023-07-09T09:40:04;18.15;;;8.23;;
59880;SDS011;45751;51.380;10.326;2023-07-09T09:42:34;11.32;;;5.88;;
59880;SDS011;45751;51.380;10.326;2023-07-09T09:45:02;15.52;;;8.20;;
59880;SDS011;45751;51.380;10.326;2023-07-09T09:47:29;11.90;;;5.18;;
59880;SDS011;45751;51.380;10.326;2023-07-09T09:49:56;12.65;;;5.95;;
59880;SDS011;45751;51.380;10.326;2023-07-09T09:52:26;12.23;;;6.15;;
59880;SDS011;45751;51.380;10.326;2023-07-09T09:55:03;13.73;;;5.75;;
59880;SDS011;45751;51.380;10.326;2023-07-09T09:57:37;14.50;;;7.65;;
59880;SDS011;45751;51.380;10.326;2023-07-09T10:00:05;26.75;;;13.60;;
59880;SDS011;45751;51.380;10.326;2023-07-09T10:02:38;14.10;;;6.43;;
59880;SDS011;45751;51.380;10.326;2023-07-09T10:05:11;12.57;;;7.20;;
59880;SDS011;45751;51.380;10.326;2023-07-09T10:07:43;10.50;;;5.35;;
59880;SDS011;45751;51.380;10.326;2023-07-09T10:10:24;12.48;;;5.55;;
59880;SDS011;45751;51.380;10.326;2023-07-09T10:21:27;15.05;;;7.95;;
59880;SDS011;45751;51.380;10.326;2023-07-09T10:40:25;10.20;;;5.28;;
59880;SDS011;45751;51.380;10.326;2023-07-09T10:42:59;11.07;;;5.22;;
59880;SDS011;45751;51.380;10.326;2023-07-09T10:45:28;10.30;;;4.40;;
59880;SDS011;45751;51.380;10.326;2023-07-09T10:48:34;9.15;;;4.43;;
59880;SDS011;45751;51.380;10.326;2023-07-09T10:51:10;10.73;;;5.05;;
59880;SDS011;45751;51.380;10.326;2023-07-09T10:53:45;9.68;;;4.50;;
59880;SDS011;45751;51.380;10.326;2023-07-09T10:56:23;13.18;;;4.20;;
59880;SDS011;45751;51.380;10.326;2023-07-09T11:01:40;8.63;;;3.80;;
59880;SDS011;45751;51.380;10.326;2023-07-09T11:04:11;9.93;;;4.28;;
59880;SDS011;45751;51.380;10.326;2023-07-09T11:09:34;10.75;;;4.10;;
59880;SDS011;45751;51.380;10.326;2023-07-09T11:12:49;11.30;;;4.50;;
59880;SDS011;45751;51.380;10.326;2023-07-09T11:17:30;10.40;;;4.60;;
59880;SDS011;45751;51.380;10.326;2023-07-09T11:20:00;13.70;;;4.63;;
59880;SDS011;45751;51.380;10.326;2023-07-09T11:22:36;9.00;;;3.95;;
59880;SDS011;45751;51.380;10.326;2023-07-09T11:25:11;11.70;;;4.30;;
59880;SDS011;45751;51.380;10.326;2023-07-09T11:27:53;8.57;;;4.00;;
59880;SDS011;45751;51.380;10.326;2023-07-09T11:30:29;9.73;;;4.43;;
59880;SDS011;45751;51.380;10.326;2023-07-09T11:33:03;9.40;;;3.92;;
59880;SDS011;45751;51.380;10.326;2023-07-09T11:35:50;10.50;;;4.25;;
59880;SDS011;45751;51.380;10.326;2023-07-09T11:38:41;9.63;;;4.45;;
59880;SDS011;45751;51.380;10.326;2023-07-09T11:44:20;8.85;;;4.60;;
59880;SDS011;45751;51.380;10.326;2023-07-09T11:50:20;9.35;;;4.10;;
59880;SDS011;45751;51.380;10.326;2023-07-09T11:52:28;10.23;;;4.38;;
59880;SDS011;45751;51.380;10.326;2023-07-09T11:55:10;9.60;;;4.18;;
59880;SDS011;45751;51.380;10.326;2023-07-09T11:57:55;11.40;;;4.35;;
59880;SDS011;45751;51.380;10.326;2023-07-09T12:00:27;9.50;;;4.38;;
59880;SDS011;45751;51.380;10.326;2023-07-09T12:03:03;9.05;;;4.05;;
59880;SDS011;45751;51.380;10.326;2023-07-09T12:05:31;11.20;;;3.88;;
59880;SDS011;45751;51.380;10.326;2023-07-09T12:07:59;8.90;;;3.80;;
59880;SDS011;45751;51.380;10.326;2023-07-09T12:10:28;10.25;;;4.32;;
59880;SDS011;45751;51.380;10.326;2023-07-09T12:12:59;8.50;;;3.53;;
59880;SDS011;45751;51.380;10.326;2023-07-09T12:15:28;8.27;;;3.90;;
59880;SDS011;45751;51.380;10.326;2023-07-09T12:17:59;11.65;;;4.80;;
59880;SDS011;45751;51.380;10.326;2023-07-09T12:20:34;11.95;;;3.80;;
59880;SDS011;45751;51.380;10.326;2023-07-09T12:25:56;8.65;;;4.10;;
59880;SDS011;45751;51.380;10.326;2023-07-09T12:28:27;9.05;;;4.03;;
59880;SDS011;45751;51.380;10.326;2023-07-09T12:30:55;9.23;;;3.85;;
59880;SDS011;45751;51.380;10.326;2023-07-09T12:33:25;11.20;;;4.95;;
59880;SDS011;45751;51.380;10.326;2023-07-09T12:35:56;10.40;;;4.68;;
59880;SDS011;45751;51.380;10.326;2023-07-09T12:38:31;10.63;;;4.63;;
59880;SDS011;45751;51.380;10.326;2023-07-09T12:41:14;13.98;;;4.32;;
59880;SDS011;45751;51.380;10.326;2023-07-09T12:43:53;10.38;;;3.72;;
59880;SDS011;45751;51.380;10.326;2023-07-09T12:46:21;10.82;;;4.90;;
59880;SDS011;45751;51.380;10.326;2023-07-09T12:48:49;8.65;;;3.75;;
59880;SDS011;45751;51.380;10.326;2023-07-09T12:51:24;9.90;;;3.80;;
59880;SDS011;45751;51.380;10.326;2023-07-09T12:54:11;9.57;;;4.07;;
59880;SDS011;45751;51.380;10.326;2023-07-09T12:56:41;9.25;;;4.47;;
59880;SDS011;45751;51.380;10.326;2023-07-09T12:59:19;13.05;;;4.30;;
59880;SDS011;45751;51.380;10.326;2023-07-09T13:04:32;12.82;;;4.80;;
59880;SDS011;45751;51.380;10.326;2023-07-09T13:07:04;9.38;;;4.53;;
59880;SDS011;45751;51.380;10.326;2023-07-09T13:09:53;10.55;;;3.90;;
59880;SDS011;45751;51.380;10.326;2023-07-09T13:12:31;9.98;;;4.20;;
59880;SDS011;45751;51.380;10.326;2023-07-09T13:14:59;9.90;;;4.13;;
59880;SDS011;45751;51.380;10.326;2023-07-09T13:17:30;9.10;;;4.05;;
59880;SDS011;45751;51.380;10.326;2023-07-09T13:19:58;11.43;;;5.47;;
59880;SDS011;45751;51.380;10.326;2023-07-09T13:22:27;8.75;;;3.97;;
59880;SDS011;45751;51.380;10.326;2023-07-09T13:24:54;9.60;;;3.80;;
59880;SDS011;45751;51.380;10.326;2023-07-09T13:27:21;10.45;;;3.95;;
59880;SDS011;45751;51.380;10.326;2023-07-09T13:29:50;11.13;;;4.40;;
59880;SDS011;45751;51.380;10.326;2023-07-09T13:32:17;10.63;;;4.68;;
59880;SDS011;45751;51.380;10.326;2023-07-09T13:34:44;9.75;;;4.15;;
59880;SDS011;45751;51.380;10.326;2023-07-09T13:37:13;11.57;;;3.97;;
59880;SDS011;45751;51.380;10.326;2023-07-09T13:39:42;10.65;;;4.55;;
59880;SDS011;45751;51.380;10.326;2023-07-09T13:42:11;10.88;;;4.82;;
59880;SDS011;45751;51.380;10.326;2023-07-09T13:44:41;9.30;;;4.57;;
59880;SDS011;45751;51.380;10.326;2023-07-09T13:47:15;12.38;;;5.15;;
59880;SDS011;45751;51.380;10.326;2023-07-09T13:49:45;12.20;;;4.40;;
59880;SDS011;45751;51.380;10.326;2023-07-09T13:52:20;9.30;;;4.38;;
59880;SDS011;45751;51.380;10.326;2023-07-09T13:54:50;10.45;;;4.15;;
59880;SDS011;45751;51.380;10.326;2023-07-09T13:57:18;9.25;;;4.38;;
59880;SDS011;45751;51.380;10.326;2023-07-09T13:59:48;10.20;;;3.90;;
59880;SDS011;45751;51.380;10.326;2023-07-09T14:04:51;10.82;;;4.38;;
59880;SDS011;45751;51.380;10.326;2023-07-09T14:07:28;9.82;;;4.65;;
59880;SDS011;45751;51.380;10.326;2023-07-09T14:12:26;9.57;;;4.50;;
59880;SDS011;45751;51.380;10.326;2023-07-09T14:14:56;10.05;;;4.38;;
59880;SDS011;45751;51.380;10.326;2023-07-09T14:17:25;8.57;;;3.88;;
59880;SDS011;45751;51.380;10.326;2023-07-09T14:19:53;8.68;;;3.92;;
59880;SDS011;45751;51.380;10.326;2023-07-09T14:24:54;11.90;;;4.45;;
59880;SDS011;45751;51.380;10.326;2023-07-09T14:27:21;9.13;;;4.22;;
59880;SDS011;45751;51.380;10.326;2023-07-09T14:29:47;10.25;;;4.05;;
59880;SDS011;45751;51.380;10.326;2023-07-09T14:32:23;10.02;;;3.90;;
59880;SDS011;45751;51.380;10.326;2023-07-09T14:35:12;9.63;;;4.03;;
59880;SDS011;45751;51.380;10.326;2023-07-09T14:37:40;11.20;;;4.57;;
59880;SDS011;45751;51.380;10.326;2023-07-09T14:40:07;9.65;;;4.85;;
59880;SDS011;45751;51.380;10.326;2023-07-09T14:42:36;10.10;;;4.03;;
59880;SDS011;45751;51.380;10.326;2023-07-09T14:47:48;12.77;;;4.53;;
59880;SDS011;45751;51.380;10.326;2023-07-09T14:50:16;8.65;;;4.13;;
59880;SDS011;45751;51.380;10.326;2023-07-09T14:52:44;12.27;;;3.83;;
59880;SDS011;45751;51.380;10.326;2023-07-09T14:55:17;8.75;;;5.15;;
59880;SDS011;45751;51.380;10.326;2023-07-09T14:57:46;11.52;;;3.90;;
59880;SDS011;45751;51.380;10.326;2023-07-09T15:00:15;12.98;;;4.10;;
59880;SDS011;45751;51.380;10.326;2023-07-09T15:02:44;9.45;;;4.38;;
59880;SDS011;45751;51.380;10.326;2023-07-09T15:05:15;9.80;;;4.82;;
59880;SDS011;45751;51.380;10.326;2023-07-09T15:07:47;8.48;;;4.20;;
59880;SDS011;45751;51.380;10.326;2023-07-09T15:10:16;10.65;;;4.65;;
59880;SDS011;45751;51.380;10.326;2023-07-09T15:12:44;9.98;;;4.45;;
59880;SDS011;45751;51.380;10.326;2023-07-09T15:15:26;10.38;;;4.57;;
59880;SDS011;45751;51.380;10.326;2023-07-09T15:17:56;9.45;;;4.35;;
59880;SDS011;45751;51.380;10.326;2023-07-09T15:20:26;9.10;;;4.53;;
59880;SDS011;45751;51.380;10.326;2023-07-09T15:22:56;9.45;;;4.50;;
59880;SDS011;45751;51.380;10.326;2023-07-09T15:25:26;9.90;;;4.68;;
59880;SDS011;45751;51.380;10.326;2023-07-09T15:27:55;10.18;;;4.20;;
59880;SDS011;45751;51.380;10.326;2023-07-09T15:30:24;9.45;;;4.10;;
59880;SDS011;45751;51.380;10.326;2023-07-09T15:32:54;9.18;;;4.28;;
59880;SDS011;45751;51.380;10.326;2023-07-09T15:35:31;10.88;;;4.47;;
59880;SDS011;45751;51.380;10.326;2023-07-09T15:38:00;9.70;;;4.38;;
59880;SDS011;45751;51.380;10.326;2023-07-09T15:40:30;10.05;;;3.97;;
59880;SDS011;45751;51.380;10.326;2023-07-09T15:43:01;9.20;;;4.18;;
59880;SDS011;45751;51.380;10.326;2023-07-09T15:45:31;10.48;;;4.70;;
59880;SDS011;45751;51.380;10.326;2023-07-09T15:47:58;9.48;;;4.53;;
59880;SDS011;45751;51.380;10.326;2023-07-09T15:50:26;11.45;;;4.43;;
59880;SDS011;45751;51.380;10.326;2023-07-09T15:52:53;10.30;;;4.72;;
59880;SDS011;45751;51.380;10.326;2023-07-09T15:55:25;12.23;;;4.78;;
59880;SDS011;45751;51.380;10.326;2023-07-09T15:57:53;9.27;;;5.05;;
59880;SDS011;45751;51.380;10.326;2023-07-09T16:00:23;11.13;;;4.47;;
59880;SDS011;45751;51.380;10.326;2023-07-09T16:02:53;10.40;;;4.40;;
59880;SDS011;45751;51.380;10.326;2023-07-09T16:05:40;9.73;;;4.72;;
59880;SDS011;45751;51.380;10.326;2023-07-09T16:08:07;10.45;;;4.63;;